createdAt,value
2023-03-02T00:04:15.578Z,1007.88
2023-03-02T00:09:15.501Z,1007.92
2023-03-02T00:14:15.460Z,1007.97
2023-03-02T00:19:15.372Z,1007.96
2023-03-02T00:24:15.325Z,1007.90
2023-03-02T00:29:15.242Z,1007.86
2023-03-02T00:34:15.196Z,1007.86
2023-03-02T00:39:15.116Z,1007.74
2023-03-02T00:44:15.062Z,1007.68
2023-03-02T00:49:14.987Z,1007.53
2023-03-02T00:54:14.935Z,1007.50
2023-03-02T00:59:14.859Z,1007.53
2023-03-02T01:04:14.804Z,1007.58
2023-03-02T01:09:14.737Z,1007.49
2023-03-02T01:14:14.693Z,1007.38
2023-03-02T01:19:14.609Z,1007.38
2023-03-02T01:24:14.566Z,1007.35
2023-03-02T01:29:14.477Z,1007.22
2023-03-02T01:34:14.438Z,1007.22
2023-03-02T01:39:14.347Z,1007.23
2023-03-02T01:44:14.304Z,1007.21
2023-03-02T01:49:14.214Z,1007.29
2023-03-02T01:54:14.169Z,1007.29
2023-03-02T01:59:14.086Z,1007.25
2023-03-02T02:04:14.090Z,1007.25
2023-03-02T02:09:13.956Z,1007.20
2023-03-02T02:14:13.899Z,1007.19
2023-03-02T02:19:13.826Z,1007.15
2023-03-02T02:24:13.771Z,1007.14
2023-03-02T02:29:13.724Z,1007.06
2023-03-02T02:34:13.638Z,1007.06
2023-03-02T02:39:13.604Z,1007.00
2023-03-02T02:44:13.524Z,1007.00
2023-03-02T02:49:13.436Z,1006.93
2023-03-02T02:54:13.384Z,1006.93
2023-03-02T02:59:13.305Z,1007.03
2023-03-02T03:04:13.280Z,1006.99
2023-03-02T03:09:13.189Z,1006.93
2023-03-02T03:14:13.152Z,1006.93
2023-03-02T03:19:13.060Z,1006.77
2023-03-02T03:24:12.980Z,1006.73
2023-03-02T03:29:12.907Z,1006.72
2023-03-02T03:34:12.848Z,1006.75
2023-03-02T03:39:12.789Z,1006.75
2023-03-02T03:44:12.713Z,1006.73
2023-03-02T03:49:12.643Z,1006.70
2023-03-02T03:54:12.580Z,1006.64
2023-03-02T03:59:12.507Z,1006.68
2023-03-02T04:04:12.465Z,1006.73
2023-03-02T04:09:12.392Z,1006.69
2023-03-02T04:14:12.334Z,1006.70
2023-03-02T04:19:12.256Z,1006.70
2023-03-02T04:24:12.219Z,1006.72
2023-03-02T04:29:12.133Z,1006.74
2023-03-02T04:34:12.101Z,1006.78
2023-03-02T04:39:49.505Z,1006.72
2023-03-02T04:44:11.966Z,1006.74
2023-03-02T04:49:11.888Z,1006.81
2023-03-02T04:54:11.859Z,1006.76
2023-03-02T04:59:11.769Z,1006.82
2023-03-02T05:04:11.797Z,1006.71
2023-03-02T05:09:11.647Z,1006.79
2023-03-02T05:14:11.596Z,1006.70
2023-03-02T05:19:11.552Z,1006.76
2023-03-02T05:24:11.458Z,1006.75
2023-03-02T05:29:11.404Z,1006.75
2023-03-02T05:34:11.337Z,1006.79
2023-03-02T05:39:11.277Z,1006.79
2023-03-02T05:44:11.210Z,1006.73
2023-03-02T05:49:11.148Z,1006.76
2023-03-02T05:54:11.085Z,1006.81
2023-03-02T05:59:11.010Z,1006.84
2023-03-02T06:04:10.959Z,1006.83
2023-03-02T06:09:10.894Z,1006.91
2023-03-02T06:14:10.840Z,1006.94
2023-03-02T06:19:10.757Z,1006.90
2023-03-02T06:24:10.704Z,1006.97
2023-03-02T06:29:10.635Z,1006.94
2023-03-02T06:34:10.581Z,1006.99
2023-03-02T06:39:10.529Z,1006.96
2023-03-02T06:44:10.462Z,1007.03
2023-03-02T06:49:10.401Z,1007.04
2023-03-02T06:54:10.335Z,1007.06
2023-03-02T06:59:10.268Z,1007.08
2023-03-02T07:04:10.197Z,1007.10
2023-03-02T07:09:10.141Z,1007.02
2023-03-02T07:14:10.074Z,1007.05
2023-03-02T07:19:09.998Z,1007.01
2023-03-02T07:24:09.938Z,1006.97
2023-03-02T07:29:09.866Z,1006.88
2023-03-02T07:34:09.813Z,1006.89
2023-03-02T07:39:09.738Z,1006.82
2023-03-02T07:44:09.687Z,1006.76
2023-03-02T07:49:09.628Z,1006.67
2023-03-02T07:54:09.556Z,1006.71
2023-03-02T07:59:09.511Z,1006.81
2023-03-02T08:04:09.420Z,1006.81
2023-03-02T08:09:09.351Z,1006.72
2023-03-02T08:14:09.292Z,1006.86
2023-03-02T08:19:09.226Z,1006.67
2023-03-02T08:24:09.164Z,1006.71
2023-03-02T08:29:09.091Z,1006.69
2023-03-02T08:34:09.031Z,1006.69
2023-03-02T08:39:08.968Z,1006.62
2023-03-02T08:44:08.904Z,1006.61
2023-03-02T08:49:08.833Z,1006.56
2023-03-02T08:54:08.766Z,1006.45
2023-03-02T08:59:08.715Z,1006.47
2023-03-02T09:04:08.712Z,1006.42
2023-03-02T09:09:08.572Z,1006.40
2023-03-02T09:14:08.508Z,1006.40
2023-03-02T09:19:08.433Z,1006.33
2023-03-02T09:24:08.375Z,1006.35
2023-03-02T09:29:08.333Z,1006.25
2023-03-02T09:34:08.268Z,1006.13
2023-03-02T09:39:08.172Z,1006.17
2023-03-02T09:44:08.121Z,1006.10
2023-03-02T09:49:08.040Z,1006.15
2023-03-02T09:54:08.065Z,1006.15
2023-03-02T09:59:07.939Z,1006.14
2023-03-02T10:04:08.042Z,1006.14
2023-03-02T10:09:07.788Z,1006.13
2023-03-02T10:14:07.725Z,1006.10
2023-03-02T10:19:07.666Z,1006.14
2023-03-02T10:24:07.595Z,1006.02
2023-03-02T10:29:07.534Z,1006.02
2023-03-02T10:34:07.470Z,1005.96
2023-03-02T10:39:07.408Z,1005.92
2023-03-02T10:44:07.353Z,1005.99
2023-03-02T10:49:07.271Z,1006.00
2023-03-02T10:54:07.222Z,1005.84
2023-03-02T10:59:07.140Z,1005.79
2023-03-02T11:04:07.102Z,1005.74
2023-03-02T11:09:07.031Z,1005.65
2023-03-02T11:14:06.966Z,1005.67
2023-03-02T11:19:06.883Z,1005.63
2023-03-02T11:24:07.916Z,1005.66
2023-03-02T11:29:06.770Z,1005.63
2023-03-02T11:34:15.607Z,1005.60
2023-03-02T11:39:06.623Z,1005.54
2023-03-02T11:44:06.574Z,1005.53
2023-03-02T11:49:06.581Z,1005.55
2023-03-02T11:54:06.435Z,1005.48
2023-03-02T11:59:06.359Z,1005.35
2023-03-02T12:09:06.303Z,1005.23
2023-03-02T12:14:06.185Z,1005.13
2023-03-02T12:19:06.106Z,1005.11
2023-03-02T12:24:06.061Z,1005.14
2023-03-02T12:29:05.973Z,1005.07
2023-03-02T12:34:05.964Z,1005.00
2023-03-02T12:39:05.843Z,1004.87
2023-03-02T12:44:05.827Z,1004.80
2023-03-02T12:49:06.864Z,1004.65
2023-03-02T12:54:05.651Z,1004.61
2023-03-02T12:59:05.578Z,1004.66
2023-03-02T13:04:05.647Z,1004.52
2023-03-02T13:09:05.520Z,1004.42
2023-03-02T13:14:05.391Z,1004.45
2023-03-02T13:19:05.322Z,1004.35
2023-03-02T13:24:05.245Z,1004.35
2023-03-02T13:29:05.187Z,1004.33
2023-03-02T13:34:05.119Z,1004.32
2023-03-02T13:39:05.056Z,1004.25
2023-03-02T13:44:04.988Z,1004.18
2023-03-02T13:49:10.805Z,1004.16
2023-03-02T13:54:04.855Z,1004.14
2023-03-02T13:59:04.811Z,1004.08
2023-03-02T14:04:04.757Z,1004.06
2023-03-02T14:09:04.674Z,1003.98
2023-03-02T14:14:04.591Z,1004.07
2023-03-02T14:19:04.547Z,1003.99
2023-03-02T14:24:04.578Z,1003.97
2023-03-02T14:29:05.892Z,1003.88
2023-03-02T14:34:04.329Z,1003.77
2023-03-02T14:39:04.273Z,1003.73
2023-03-02T14:44:04.198Z,1003.72
2023-03-02T14:49:04.145Z,1003.67
2023-03-02T14:54:04.071Z,1003.66
2023-03-02T14:59:04.013Z,1003.67
2023-03-02T15:04:03.940Z,1003.63
2023-03-02T15:09:03.886Z,1003.65
2023-03-02T15:14:03.821Z,1003.64
2023-03-02T15:19:03.767Z,1003.58
2023-03-02T15:24:03.718Z,1003.63
2023-03-02T15:29:03.629Z,1003.52
2023-03-02T15:34:03.546Z,1003.58
2023-03-02T15:39:03.503Z,1003.62
2023-03-02T15:44:03.413Z,1003.62
2023-03-02T15:49:03.365Z,1003.57
2023-03-02T15:54:03.278Z,1003.63
2023-03-02T15:59:03.233Z,1003.62
2023-03-02T16:04:03.179Z,1003.62
2023-03-02T16:09:03.096Z,1003.59
2023-03-02T16:14:03.044Z,1003.60
2023-03-02T16:19:02.974Z,1003.63
2023-03-02T16:24:03.225Z,1003.69
2023-03-02T16:29:02.874Z,1003.72
2023-03-02T16:34:02.773Z,1003.69
2023-03-02T16:39:02.703Z,1003.70
2023-03-02T16:44:02.631Z,1003.75
2023-03-02T16:49:02.572Z,1003.76
2023-03-02T16:54:02.548Z,1003.87
2023-03-02T16:59:02.611Z,1003.87
2023-03-02T17:04:04.879Z,1003.93
2023-03-02T17:09:02.314Z,1004.08
2023-03-02T17:14:02.241Z,1004.13
2023-03-02T17:19:02.727Z,1004.12
2023-03-02T17:24:02.113Z,1004.24
2023-03-02T17:29:02.044Z,1004.29
2023-03-02T17:34:01.980Z,1004.41
2023-03-02T17:39:01.920Z,1004.46
2023-03-02T17:44:01.871Z,1004.48
2023-03-02T17:49:01.787Z,1004.56
2023-03-02T17:54:01.720Z,1004.59
2023-03-02T17:59:01.657Z,1004.67
2023-03-02T18:04:01.621Z,1004.71
2023-03-02T18:09:01.529Z,1004.81
2023-03-02T18:14:01.462Z,1004.89
2023-03-02T18:19:01.392Z,1004.92
2023-03-02T18:24:01.325Z,1005.01
2023-03-02T18:29:01.257Z,1005.12
2023-03-02T18:34:01.186Z,1005.10
2023-03-02T18:39:01.126Z,1005.15
2023-03-02T18:44:01.092Z,1005.18
2023-03-02T18:49:01.034Z,1005.23
2023-03-02T18:54:00.920Z,1005.29
2023-03-02T18:59:00.859Z,1005.32
2023-03-02T19:04:00.790Z,1005.33
2023-03-02T19:09:00.738Z,1005.44
2023-03-02T19:14:00.657Z,1005.37
2023-03-02T19:19:00.605Z,1005.46
2023-03-02T19:24:00.572Z,1005.47
2023-03-02T19:29:00.533Z,1005.48
2023-03-02T19:34:00.420Z,1005.54
2023-03-02T19:39:00.351Z,1005.53
2023-03-02T19:44:00.285Z,1005.50
2023-03-02T19:49:00.268Z,1005.51
2023-03-02T19:54:00.603Z,1005.60
2023-03-02T19:59:00.113Z,1005.66
2023-03-02T20:04:00.133Z,1005.68
2023-03-02T20:09:00.120Z,1005.73
2023-03-02T20:13:59.889Z,1005.79
2023-03-02T20:18:59.832Z,1005.77
2023-03-02T20:23:59.769Z,1005.76
2023-03-02T20:28:59.789Z,1005.76
2023-03-02T20:33:59.633Z,1005.81
2023-03-02T20:38:59.605Z,1005.82
2023-03-02T20:43:59.528Z,1005.84
2023-03-02T20:48:59.452Z,1005.80
2023-03-02T20:53:59.411Z,1005.82
2023-03-02T20:58:59.341Z,1005.84
2023-03-02T21:03:59.264Z,1005.81
2023-03-02T21:08:59.216Z,1005.82
2023-03-02T21:13:59.142Z,1005.86
2023-03-02T21:18:59.100Z,1005.85
2023-03-02T21:23:59.005Z,1005.72
2023-03-02T21:28:58.959Z,1005.79
2023-03-02T21:33:58.893Z,1005.73
2023-03-02T21:38:58.832Z,1005.76
2023-03-02T21:43:58.758Z,1005.82
2023-03-02T21:48:58.719Z,1005.79
2023-03-02T21:53:58.627Z,1005.76
2023-03-02T21:58:58.568Z,1005.82
2023-03-02T22:03:58.502Z,1005.80
2023-03-02T22:08:58.454Z,1005.81
2023-03-02T22:13:58.396Z,1005.79
2023-03-02T22:18:58.369Z,1005.76
2023-03-02T22:23:58.251Z,1005.76
2023-03-02T22:28:58.198Z,1005.77
2023-03-02T22:33:58.128Z,1005.78
2023-03-02T22:38:58.084Z,1005.74
2023-03-02T22:43:57.998Z,1005.72
2023-03-02T22:48:57.953Z,1005.79
2023-03-02T22:53:57.886Z,1005.79
2023-03-02T22:58:57.848Z,1005.81
2023-03-02T23:03:57.741Z,1005.81
2023-03-02T23:08:57.710Z,1005.74
2023-03-02T23:13:57.617Z,1005.70
2023-03-02T23:18:57.557Z,1005.73
2023-03-02T23:23:57.492Z,1005.75
2023-03-02T23:28:57.438Z,1005.85
2023-03-02T23:33:57.358Z,1005.81
2023-03-02T23:38:57.306Z,1005.81
2023-03-02T23:43:57.224Z,1005.78
2023-03-02T23:48:57.168Z,1005.76
2023-03-02T23:53:57.100Z,1005.73
2023-03-02T23:58:57.045Z,1005.69
